sensor_id;sensor_type;location;lat;lon;timestamp;temperature;humidity
1355;DHT22;671;48.972;9.276;2024-01-16T00:01:31;0.50;99.90
1355;DHT22;671;48.972;9.276;2024-01-16T00:03:57;0.50;99.90
1355;DHT22;671;48.972;9.276;2024-01-16T00:06:24;0.40;99.90
1355;DHT22;671;48.972;9.276;2024-01-16T00:08:50;0.40;99.90
1355;DHT22;671;48.972;9.276;2024-01-16T00:11:17;0.30;99.90
1355;DHT22;671;48.972;9.276;2024-01-16T00:13:43;0.30;99.90
1355;DHT22;671;48.972;9.276;2024-01-16T00:16:10;0.20;99.90
1355;DHT22;671;48.972;9.276;2024-01-16T00:18:36;0.20;99.90
1355;DHT22;671;48.972;9.276;2024-01-16T00:21:03;0.10;99.90
1355;DHT22;671;48.972;9.276;2024-01-16T00:23:29;0.10;99.90
1355;DHT22;671;48.972;9.276;2024-01-16T00:25:58;0.20;99.90
1355;DHT22;671;48.972;9.276;2024-01-16T00:28:25;0.20;99.90
1355;DHT22;671;48.972;9.276;2024-01-16T00:30:52;0.10;99.90
1355;DHT22;671;48.972;9.276;2024-01-16T00:33:18;0.20;99.90
1355;DHT22;671;48.972;9.276;2024-01-16T00:35:45;0.10;99.90
1355;DHT22;671;48.972;9.276;2024-01-16T00:38:11;0.10;99.90
1355;DHT22;671;48.972;9.276;2024-01-16T00:40:38;0.10;99.90
1355;DHT22;671;48.972;9.276;2024-01-16T00:43:04;0.10;99.90
1355;DHT22;671;48.972;9.276;2024-01-16T00:45:31;0.00;99.90
1355;DHT22;671;48.972;9.276;2024-01-16T00:47:57;-0.10;99.90
1355;DHT22;671;48.972;9.276;2024-01-16T00:50:24;-0.10;99.90
1355;DHT22;671;48.972;9.276;2024-01-16T00:52:50;-0.10;99.90
1355;DHT22;671;48.972;9.276;2024-01-16T00:55:17;-0.10;99.90
1355;DHT22;671;48.972;9.276;2024-01-16T00:57:43;-0.10;99.90
1355;DHT22;671;48.972;9.276;2024-01-16T01:00:10;-0.10;99.90
1355;DHT22;671;48.972;9.276;2024-01-16T01:02:38;-0.10;99.90
1355;DHT22;671;48.972;9.276;2024-01-16T01:05:05;-0.10;99.90
1355;DHT22;671;48.972;9.276;2024-01-16T01:07:33;-0.10;99.90
1355;DHT22;671;48.972;9.276;2024-01-16T01:09:59;0.00;99.90
1355;DHT22;671;48.972;9.276;2024-01-16T01:12:26;0.00;99.90
1355;DHT22;671;48.972;9.276;2024-01-16T01:14:52;0.00;99.90
1355;DHT22;671;48.972;9.276;2024-01-16T01:17:19;0.10;99.90
1355;DHT22;671;48.972;9.276;2024-01-16T01:19:45;0.20;99.90
1355;DHT22;671;48.972;9.276;2024-01-16T01:22:12;0.20;99.90
1355;DHT22;671;48.972;9.276;2024-01-16T01:24:39;0.20;99.90
1355;DHT22;671;48.972;9.276;2024-01-16T01:27:05;0.30;99.90
1355;DHT22;671;48.972;9.276;2024-01-16T01:29:32;0.30;99.90
1355;DHT22;671;48.972;9.276;2024-01-16T01:31:59;0.30;99.90
1355;DHT22;671;48.972;9.276;2024-01-16T01:34:25;0.30;99.90
1355;DHT22;671;48.972;9.276;2024-01-16T01:36:52;0.40;99.90
1355;DHT22;671;48.972;9.276;2024-01-16T01:39:18;0.40;99.90
1355;DHT22;671;48.972;9.276;2024-01-16T01:41:45;0.40;99.90
1355;DHT22;671;48.972;9.276;2024-01-16T01:44:11;0.40;99.90
1355;DHT22;671;48.972;9.276;2024-01-16T01:46:42;0.40;99.90
1355;DHT22;671;48.972;9.276;2024-01-16T01:49:09;0.50;99.90
1355;DHT22;671;48.972;9.276;2024-01-16T01:51:37;0.50;99.90
1355;DHT22;671;48.972;9.276;2024-01-16T01:54:04;0.50;99.90
1355;DHT22;671;48.972;9.276;2024-01-16T01:56:31;0.50;99.90
1355;DHT22;671;48.972;9.276;2024-01-16T01:58:57;0.50;99.90
1355;DHT22;671;48.972;9.276;2024-01-16T02:01:29;0.60;99.90
1355;DHT22;671;48.972;9.276;2024-01-16T02:03:59;0.60;99.90
1355;DHT22;671;48.972;9.276;2024-01-16T02:06:26;0.60;99.90
1355;DHT22;671;48.972;9.276;2024-01-16T02:08:53;0.60;99.90
1355;DHT22;671;48.972;9.276;2024-01-16T02:11:19;0.60;99.90
1355;DHT22;671;48.972;9.276;2024-01-16T02:13:46;0.60;99.90
1355;DHT22;671;48.972;9.276;2024-01-16T02:16:22;0.60;99.90
1355;DHT22;671;48.972;9.276;2024-01-16T02:18:49;0.60;99.90
1355;DHT22;671;48.972;9.276;2024-01-16T02:21:20;0.60;99.90
1355;DHT22;671;48.972;9.276;2024-01-16T02:23:48;0.60;99.90
1355;DHT22;671;48.972;9.276;2024-01-16T02:26:14;0.60;99.90
1355;DHT22;671;48.972;9.276;2024-01-16T02:28:44;0.60;99.90
1355;DHT22;671;48.972;9.276;2024-01-16T02:31:11;0.60;99.90
1355;DHT22;671;48.972;9.276;2024-01-16T02:33:37;0.60;99.90
1355;DHT22;671;48.972;9.276;2024-01-16T02:36:04;0.50;99.90
1355;DHT22;671;48.972;9.276;2024-01-16T02:38:30;0.50;99.90
1355;DHT22;671;48.972;9.276;2024-01-16T02:40:57;0.50;99.90
1355;DHT22;671;48.972;9.276;2024-01-16T02:43:23;0.50;99.90
1355;DHT22;671;48.972;9.276;2024-01-16T02:45:52;0.50;99.90
1355;DHT22;671;48.972;9.276;2024-01-16T02:48:19;0.50;99.90
1355;DHT22;671;48.972;9.276;2024-01-16T02:50:45;0.50;99.90
1355;DHT22;671;48.972;9.276;2024-01-16T02:53:12;0.50;99.90
1355;DHT22;671;48.972;9.276;2024-01-16T02:55:38;0.50;99.90
1355;DHT22;671;48.972;9.276;2024-01-16T02:58:05;0.50;99.90
1355;DHT22;671;48.972;9.276;2024-01-16T03:00:32;0.50;99.90
1355;DHT22;671;48.972;9.276;2024-01-16T03:02:59;0.50;99.90
1355;DHT22;671;48.972;9.276;2024-01-16T03:05:25;0.50;99.90
1355;DHT22;671;48.972;9.276;2024-01-16T03:07:52;0.50;99.90
1355;DHT22;671;48.972;9.276;2024-01-16T03:10:18;0.40;99.90
1355;DHT22;671;48.972;9.276;2024-01-16T03:12:45;0.30;99.90
1355;DHT22;671;48.972;9.276;2024-01-16T03:15:11;0.20;99.90
1355;DHT22;671;48.972;9.276;2024-01-16T03:17:38;0.20;99.90
1355;DHT22;671;48.972;9.276;2024-01-16T03:20:05;0.20;99.90
1355;DHT22;671;48.972;9.276;2024-01-16T03:22:31;0.20;99.90
1355;DHT22;671;48.972;9.276;2024-01-16T03:24:58;0.20;99.90
1355;DHT22;671;48.972;9.276;2024-01-16T03:27:24;0.30;99.90
1355;DHT22;671;48.972;9.276;2024-01-16T03:29:51;0.30;99.90
1355;DHT22;671;48.972;9.276;2024-01-16T03:32:18;0.30;99.90
1355;DHT22;671;48.972;9.276;2024-01-16T03:34:44;0.40;99.90
1355;DHT22;671;48.972;9.276;2024-01-16T03:37:11;0.40;99.90
1355;DHT22;671;48.972;9.276;2024-01-16T03:39:37;0.40;99.90
1355;DHT22;671;48.972;9.276;2024-01-16T03:42:04;0.40;99.90
1355;DHT22;671;48.972;9.276;2024-01-16T03:44:30;0.50;99.90
1355;DHT22;671;48.972;9.276;2024-01-16T03:46:57;0.50;99.90
1355;DHT22;671;48.972;9.276;2024-01-16T03:49:23;0.50;99.90
1355;DHT22;671;48.972;9.276;2024-01-16T03:51:51;0.50;99.90
1355;DHT22;671;48.972;9.276;2024-01-16T03:54:17;0.50;99.90
1355;DHT22;671;48.972;9.276;2024-01-16T03:56:44;0.50;99.90
1355;DHT22;671;48.972;9.276;2024-01-16T03:59:10;0.60;99.90
1355;DHT22;671;48.972;9.276;2024-01-16T04:01:37;0.50;99.90
1355;DHT22;671;48.972;9.276;2024-01-16T04:04:04;0.60;99.90
1355;DHT22;671;48.972;9.276;2024-01-16T04:06:33;0.50;99.90
1355;DHT22;671;48.972;9.276;2024-01-16T04:09:00;0.50;99.90
1355;DHT22;671;48.972;9.276;2024-01-16T04:11:27;0.50;99.90
1355;DHT22;671;48.972;9.276;2024-01-16T04:13:53;0.50;99.90
1355;DHT22;671;48.972;9.276;2024-01-16T04:16:20;0.50;99.90
1355;DHT22;671;48.972;9.276;2024-01-16T04:18:47;0.50;99.90
1355;DHT22;671;48.972;9.276;2024-01-16T04:21:13;0.50;99.90
1355;DHT22;671;48.972;9.276;2024-01-16T04:23:41;0.40;99.90
1355;DHT22;671;48.972;9.276;2024-01-16T04:26:08;0.40;99.90
1355;DHT22;671;48.972;9.276;2024-01-16T04:28:35;0.40;99.90
1355;DHT22;671;48.972;9.276;2024-01-16T04:31:04;0.40;99.90
1355;DHT22;671;48.972;9.276;2024-01-16T04:33:31;0.30;99.90
1355;DHT22;671;48.972;9.276;2024-01-16T04:35:57;0.20;99.90
1355;DHT22;671;48.972;9.276;2024-01-16T04:38:24;0.20;99.90
1355;DHT22;671;48.972;9.276;2024-01-16T04:40:50;0.20;99.90
1355;DHT22;671;48.972;9.276;2024-01-16T04:43:17;0.10;99.90
1355;DHT22;671;48.972;9.276;2024-01-16T04:45:43;0.00;99.90
1355;DHT22;671;48.972;9.276;2024-01-16T04:48:10;-0.10;99.90
1355;DHT22;671;48.972;9.276;2024-01-16T04:50:36;-0.20;99.90
1355;DHT22;671;48.972;9.276;2024-01-16T04:53:03;-0.30;99.90
1355;DHT22;671;48.972;9.276;2024-01-16T04:55:30;-0.40;99.90
1355;DHT22;671;48.972;9.276;2024-01-16T04:57:57;-0.50;99.90
1355;DHT22;671;48.972;9.276;2024-01-16T05:00:24;-0.60;99.90
1355;DHT22;671;48.972;9.276;2024-01-16T05:02:50;-0.60;99.90
1355;DHT22;671;48.972;9.276;2024-01-16T05:05:17;-0.70;99.90
1355;DHT22;671;48.972;9.276;2024-01-16T05:07:44;-0.80;99.90
1355;DHT22;671;48.972;9.276;2024-01-16T05:10:12;-0.90;99.90
1355;DHT22;671;48.972;9.276;2024-01-16T05:12:42;-1.00;99.90
1355;DHT22;671;48.972;9.276;2024-01-16T05:15:09;-1.10;99.90
1355;DHT22;671;48.972;9.276;2024-01-16T05:17:37;-1.20;99.90
1355;DHT22;671;48.972;9.276;2024-01-16T05:20:04;-1.20;99.90
1355;DHT22;671;48.972;9.276;2024-01-16T05:22:31;-1.30;99.90
1355;DHT22;671;48.972;9.276;2024-01-16T05:24:59;-1.30;99.90
1355;DHT22;671;48.972;9.276;2024-01-16T05:27:26;-1.30;99.90
1355;DHT22;671;48.972;9.276;2024-01-16T05:29:53;-1.40;99.90
1355;DHT22;671;48.972;9.276;2024-01-16T05:32:19;-1.40;99.90
1355;DHT22;671;48.972;9.276;2024-01-16T05:34:46;-1.40;99.90
1355;DHT22;671;48.972;9.276;2024-01-16T05:37:12;-1.50;99.90
1355;DHT22;671;48.972;9.276;2024-01-16T05:39:40;-1.50;99.90
1355;DHT22;671;48.972;9.276;2024-01-16T05:42:06;-1.50;99.90
1355;DHT22;671;48.972;9.276;2024-01-16T05:44:33;-1.60;99.90
1355;DHT22;671;48.972;9.276;2024-01-16T05:47:00;-1.60;99.90
1355;DHT22;671;48.972;9.276;2024-01-16T05:49:26;-1.60;99.90
1355;DHT22;671;48.972;9.276;2024-01-16T05:51:52;-1.60;99.90
1355;DHT22;671;48.972;9.276;2024-01-16T05:54:19;-1.60;99.90
1355;DHT22;671;48.972;9.276;2024-01-16T05:56:45;-1.70;99.90
1355;DHT22;671;48.972;9.276;2024-01-16T05:59:12;-1.70;99.90
1355;DHT22;671;48.972;9.276;2024-01-16T06:01:38;-1.80;99.90
1355;DHT22;671;48.972;9.276;2024-01-16T06:04:05;-1.70;99.90
1355;DHT22;671;48.972;9.276;2024-01-16T06:06:31;-1.70;99.90
1355;DHT22;671;48.972;9.276;2024-01-16T06:08:59;-1.70;99.90
1355;DHT22;671;48.972;9.276;2024-01-16T06:11:31;-1.70;99.90
1355;DHT22;671;48.972;9.276;2024-01-16T06:13:58;-1.60;99.90
1355;DHT22;671;48.972;9.276;2024-01-16T06:16:25;-1.60;99.90
1355;DHT22;671;48.972;9.276;2024-01-16T06:18:52;-1.60;99.90
1355;DHT22;671;48.972;9.276;2024-01-16T06:21:19;-1.60;99.90
1355;DHT22;671;48.972;9.276;2024-01-16T06:23:45;-1.50;99.90
1355;DHT22;671;48.972;9.276;2024-01-16T06:26:11;-1.50;99.90
1355;DHT22;671;48.972;9.276;2024-01-16T06:28:38;-1.50;99.90
1355;DHT22;671;48.972;9.276;2024-01-16T06:31:06;-1.40;99.90
1355;DHT22;671;48.972;9.276;2024-01-16T06:33:33;-1.40;99.90
1355;DHT22;671;48.972;9.276;2024-01-16T06:35:59;-1.30;99.90
1355;DHT22;671;48.972;9.276;2024-01-16T06:38:26;-1.40;99.90
1355;DHT22;671;48.972;9.276;2024-01-16T06:40:52;-1.30;99.90
1355;DHT22;671;48.972;9.276;2024-01-16T06:43:19;-1.30;99.90
1355;DHT22;671;48.972;9.276;2024-01-16T06:45:45;-1.40;99.90
1355;DHT22;671;48.972;9.276;2024-01-16T06:48:12;-1.40;99.90
1355;DHT22;671;48.972;9.276;2024-01-16T06:50:38;-1.40;99.90
1355;DHT22;671;48.972;9.276;2024-01-16T06:53:05;-1.40;99.90
1355;DHT22;671;48.972;9.276;2024-01-16T06:55:31;-1.40;99.90
1355;DHT22;671;48.972;9.276;2024-01-16T06:57:58;-1.40;99.90
1355;DHT22;671;48.972;9.276;2024-01-16T07:00:24;-1.50;99.90
1355;DHT22;671;48.972;9.276;2024-01-16T07:02:53;-1.40;99.90
1355;DHT22;671;48.972;9.276;2024-01-16T07:05:21;-1.40;99.90
1355;DHT22;671;48.972;9.276;2024-01-16T07:07:47;-1.40;99.90
1355;DHT22;671;48.972;9.276;2024-01-16T07:10:14;-1.40;99.90
1355;DHT22;671;48.972;9.276;2024-01-16T07:12:45;-1.30;99.90
1355;DHT22;671;48.972;9.276;2024-01-16T07:15:11;-1.40;99.90
1355;DHT22;671;48.972;9.276;2024-01-16T07:17:38;-1.40;99.90
1355;DHT22;671;48.972;9.276;2024-01-16T07:20:05;-1.40;99.90
1355;DHT22;671;48.972;9.276;2024-01-16T07:22:31;-1.40;99.90
1355;DHT22;671;48.972;9.276;2024-01-16T07:24:58;-1.40;99.90
1355;DHT22;671;48.972;9.276;2024-01-16T07:27:24;-1.40;99.90
1355;DHT22;671;48.972;9.276;2024-01-16T07:29:51;-1.30;99.90
1355;DHT22;671;48.972;9.276;2024-01-16T07:32:18;-1.30;99.90
1355;DHT22;671;48.972;9.276;2024-01-16T07:34:44;-1.30;99.90
1355;DHT22;671;48.972;9.276;2024-01-16T07:37:11;-1.30;99.90
1355;DHT22;671;48.972;9.276;2024-01-16T07:39:37;-1.30;99.90
1355;DHT22;671;48.972;9.276;2024-01-16T07:42:04;-1.20;99.90
1355;DHT22;671;48.972;9.276;2024-01-16T07:44:30;-1.20;99.90
1355;DHT22;671;48.972;9.276;2024-01-16T07:46:57;-1.10;99.90
1355;DHT22;671;48.972;9.276;2024-01-16T07:49:24;-1.10;99.90
1355;DHT22;671;48.972;9.276;2024-01-16T07:51:50;-1.00;99.90
1355;DHT22;671;48.972;9.276;2024-01-16T07:54:17;-1.00;99.90
1355;DHT22;671;48.972;9.276;2024-01-16T07:56:43;-1.00;99.90
1355;DHT22;671;48.972;9.276;2024-01-16T07:59:10;-0.90;99.90
1355;DHT22;671;48.972;9.276;2024-01-16T08:01:36;-0.80;99.90
1355;DHT22;671;48.972;9.276;2024-01-16T08:04:04;-0.80;99.90
1355;DHT22;671;48.972;9.276;2024-01-16T08:06:30;-0.80;99.90
1355;DHT22;671;48.972;9.276;2024-01-16T08:08:57;-0.70;99.90
1355;DHT22;671;48.972;9.276;2024-01-16T08:11:24;-0.60;99.90
1355;DHT22;671;48.972;9.276;2024-01-16T08:13:50;-0.60;99.90
1355;DHT22;671;48.972;9.276;2024-01-16T08:16:17;-0.50;99.90
1355;DHT22;671;48.972;9.276;2024-01-16T08:18:43;-0.50;99.90
1355;DHT22;671;48.972;9.276;2024-01-16T08:21:10;-0.40;99.90
1355;DHT22;671;48.972;9.276;2024-01-16T08:23:37;-0.40;99.90
1355;DHT22;671;48.972;9.276;2024-01-16T08:26:04;-0.30;99.90
1355;DHT22;671;48.972;9.276;2024-01-16T08:28:31;-0.20;99.90
1355;DHT22;671;48.972;9.276;2024-01-16T08:30:57;-0.20;99.90
1355;DHT22;671;48.972;9.276;2024-01-16T08:33:25;-0.10;99.90
1355;DHT22;671;48.972;9.276;2024-01-16T08:35:51;0.00;99.90
1355;DHT22;671;48.972;9.276;2024-01-16T08:38:18;0.00;99.90
1355;DHT22;671;48.972;9.276;2024-01-16T08:40:44;0.10;99.90
1355;DHT22;671;48.972;9.276;2024-01-16T08:43:11;0.10;99.90
1355;DHT22;671;48.972;9.276;2024-01-16T08:45:37;0.20;99.90
1355;DHT22;671;48.972;9.276;2024-01-16T08:48:04;0.30;99.90
1355;DHT22;671;48.972;9.276;2024-01-16T08:50:30;0.30;99.90
1355;DHT22;671;48.972;9.276;2024-01-16T08:52:57;0.40;99.90
1355;DHT22;671;48.972;9.276;2024-01-16T08:55:23;0.50;99.90
1355;DHT22;671;48.972;9.276;2024-01-16T08:57:49;0.60;99.90
1355;DHT22;671;48.972;9.276;2024-01-16T09:00:16;0.60;99.90
1355;DHT22;671;48.972;9.276;2024-01-16T09:02:43;0.80;99.90
1355;DHT22;671;48.972;9.276;2024-01-16T09:05:09;0.80;99.90
1355;DHT22;671;48.972;9.276;2024-01-16T09:07:36;0.90;99.90
1355;DHT22;671;48.972;9.276;2024-01-16T09:10:02;1.00;99.90
1355;DHT22;671;48.972;9.276;2024-01-16T09:12:29;1.10;99.90
1355;DHT22;671;48.972;9.276;2024-01-16T09:14:55;1.10;99.90
1355;DHT22;671;48.972;9.276;2024-01-16T09:17:22;1.20;99.90
1355;DHT22;671;48.972;9.276;2024-01-16T09:19:48;1.30;99.90
1355;DHT22;671;48.972;9.276;2024-01-16T09:22:15;1.40;99.90
1355;DHT22;671;48.972;9.276;2024-01-16T09:24:42;1.40;99.90
1355;DHT22;671;48.972;9.276;2024-01-16T09:27:09;1.50;99.90
1355;DHT22;671;48.972;9.276;2024-01-16T09:29:36;1.50;99.90
1355;DHT22;671;48.972;9.276;2024-01-16T09:32:03;1.50;99.90
1355;DHT22;671;48.972;9.276;2024-01-16T09:34:29;1.60;99.90
1355;DHT22;671;48.972;9.276;2024-01-16T09:36:56;1.60;99.90
1355;DHT22;671;48.972;9.276;2024-01-16T09:39:25;1.70;99.90
1355;DHT22;671;48.972;9.276;2024-01-16T09:41:52;1.80;99.90
1355;DHT22;671;48.972;9.276;2024-01-16T09:44:19;1.80;99.90
1355;DHT22;671;48.972;9.276;2024-01-16T09:46:45;1.90;99.90
1355;DHT22;671;48.972;9.276;2024-01-16T09:49:14;1.90;99.90
1355;DHT22;671;48.972;9.276;2024-01-16T09:51:43;2.00;99.90
1355;DHT22;671;48.972;9.276;2024-01-16T09:54:09;2.00;99.90
1355;DHT22;671;48.972;9.276;2024-01-16T09:56:41;2.00;99.90
1355;DHT22;671;48.972;9.276;2024-01-16T09:59:09;2.00;99.90
1355;DHT22;671;48.972;9.276;2024-01-16T10:01:37;2.00;99.90
1355;DHT22;671;48.972;9.276;2024-01-16T10:04:03;2.00;99.90
1355;DHT22;671;48.972;9.276;2024-01-16T10:06:30;2.10;99.90
1355;DHT22;671;48.972;9.276;2024-01-16T10:08:57;2.20;99.90
1355;DHT22;671;48.972;9.276;2024-01-16T10:11:23;2.30;99.90
1355;DHT22;671;48.972;9.276;2024-01-16T10:13:49;2.40;99.90
1355;DHT22;671;48.972;9.276;2024-01-16T10:16:16;2.60;99.90
1355;DHT22;671;48.972;9.276;2024-01-16T10:18:43;2.70;99.90
1355;DHT22;671;48.972;9.276;2024-01-16T10:21:20;2.80;99.90
1355;DHT22;671;48.972;9.276;2024-01-16T10:23:51;2.90;99.90
1355;DHT22;671;48.972;9.276;2024-01-16T10:26:17;3.00;99.90
1355;DHT22;671;48.972;9.276;2024-01-16T10:28:47;3.10;99.90
1355;DHT22;671;48.972;9.276;2024-01-16T10:31:13;3.10;99.90
1355;DHT22;671;48.972;9.276;2024-01-16T10:33:40;3.20;99.90
1355;DHT22;671;48.972;9.276;2024-01-16T10:36:08;3.30;99.90
1355;DHT22;671;48.972;9.276;2024-01-16T10:38:40;3.40;99.90
1355;DHT22;671;48.972;9.276;2024-01-16T10:41:17;3.60;99.90
1355;DHT22;671;48.972;9.276;2024-01-16T10:43:44;3.70;99.90
1355;DHT22;671;48.972;9.276;2024-01-16T10:46:15;3.80;99.90
1355;DHT22;671;48.972;9.276;2024-01-16T10:48:44;3.80;99.90
1355;DHT22;671;48.972;9.276;2024-01-16T10:51:14;3.80;99.90
1355;DHT22;671;48.972;9.276;2024-01-16T10:53:42;3.90;99.90
1355;DHT22;671;48.972;9.276;2024-01-16T10:56:17;3.90;99.90
1355;DHT22;671;48.972;9.276;2024-01-16T10:58:45;3.80;99.90
1355;DHT22;671;48.972;9.276;2024-01-16T11:01:15;3.90;99.90
1355;DHT22;671;48.972;9.276;2024-01-16T11:03:47;4.00;99.90
1355;DHT22;671;48.972;9.276;2024-01-16T11:06:19;4.10;99.90
1355;DHT22;671;48.972;9.276;2024-01-16T11:08:47;4.10;99.90
1355;DHT22;671;48.972;9.276;2024-01-16T11:11:15;4.20;99.90
1355;DHT22;671;48.972;9.276;2024-01-16T11:13:42;4.20;99.90
1355;DHT22;671;48.972;9.276;2024-01-16T11:16:11;4.30;99.90
1355;DHT22;671;48.972;9.276;2024-01-16T11:18:38;4.40;99.90
1355;DHT22;671;48.972;9.276;2024-01-16T11:21:12;4.50;99.90
1355;DHT22;671;48.972;9.276;2024-01-16T11:23:39;4.70;99.90
1355;DHT22;671;48.972;9.276;2024-01-16T11:28:55;5.00;99.90
1355;DHT22;671;48.972;9.276;2024-01-16T11:31:33;5.20;99.90
1355;DHT22;671;48.972;9.276;2024-01-16T11:34:01;5.30;99.90
1355;DHT22;671;48.972;9.276;2024-01-16T11:39:19;5.40;99.90
1355;DHT22;671;48.972;9.276;2024-01-16T11:41:58;5.50;99.90
1355;DHT22;671;48.972;9.276;2024-01-16T11:49:42;5.70;99.90
1355;DHT22;671;48.972;9.276;2024-01-16T11:52:09;5.60;99.90
1355;DHT22;671;48.972;9.276;2024-01-16T11:54:37;5.60;99.90
1355;DHT22;671;48.972;9.276;2024-01-16T11:57:29;5.60;99.90
1355;DHT22;671;48.972;9.276;2024-01-16T12:00:05;5.60;99.90
1355;DHT22;671;48.972;9.276;2024-01-16T12:02:55;5.50;99.90
1355;DHT22;671;48.972;9.276;2024-01-16T12:05:22;5.40;99.90
1355;DHT22;671;48.972;9.276;2024-01-16T12:07:50;5.50;99.90
1355;DHT22;671;48.972;9.276;2024-01-16T12:10:22;5.60;99.90
1355;DHT22;671;48.972;9.276;2024-01-16T12:12:49;5.60;99.90
1355;DHT22;671;48.972;9.276;2024-01-16T12:15:20;5.60;99.90
1355;DHT22;671;48.972;9.276;2024-01-16T12:18:01;5.70;99.90
1355;DHT22;671;48.972;9.276;2024-01-16T12:20:32;5.70;99.90
1355;DHT22;671;48.972;9.276;2024-01-16T12:23:04;5.90;99.90
1355;DHT22;671;48.972;9.276;2024-01-16T12:25:35;6.10;99.90
1355;DHT22;671;48.972;9.276;2024-01-16T12:28:03;6.20;99.90
1355;DHT22;671;48.972;9.276;2024-01-16T12:30:31;6.20;99.90
1355;DHT22;671;48.972;9.276;2024-01-16T12:35:35;6.30;99.90
1355;DHT22;671;48.972;9.276;2024-01-16T12:38:02;6.40;99.90
1355;DHT22;671;48.972;9.276;2024-01-16T12:40:29;6.30;99.90
1355;DHT22;671;48.972;9.276;2024-01-16T12:42:56;6.30;99.90
1355;DHT22;671;48.972;9.276;2024-01-16T12:45:23;6.30;99.90
1355;DHT22;671;48.972;9.276;2024-01-16T12:47:51;6.30;99.90
1355;DHT22;671;48.972;9.276;2024-01-16T12:50:37;6.30;99.90
1355;DHT22;671;48.972;9.276;2024-01-16T12:55:31;6.30;99.90
1355;DHT22;671;48.972;9.276;2024-01-16T12:58:24;6.20;99.90
1355;DHT22;671;48.972;9.276;2024-01-16T13:00:53;6.00;99.90
1355;DHT22;671;48.972;9.276;2024-01-16T13:03:25;5.80;99.90
1355;DHT22;671;48.972;9.276;2024-01-16T13:05:57;5.70;98.90
1355;DHT22;671;48.972;9.276;2024-01-16T13:08:24;5.80;99.90
1355;DHT22;671;48.972;9.276;2024-01-16T13:11:08;5.90;99.90
1355;DHT22;671;48.972;9.276;2024-01-16T13:13:36;6.00;99.40
1355;DHT22;671;48.972;9.276;2024-01-16T13:16:04;6.00;98.60
1355;DHT22;671;48.972;9.276;2024-01-16T13:18:34;6.10;98.70
1355;DHT22;671;48.972;9.276;2024-01-16T13:21:01;6.10;99.90
1355;DHT22;671;48.972;9.276;2024-01-16T13:23:28;6.10;99.90
1355;DHT22;671;48.972;9.276;2024-01-16T13:25:56;6.00;99.90
1355;DHT22;671;48.972;9.276;2024-01-16T13:28:23;5.90;99.90
1355;DHT22;671;48.972;9.276;2024-01-16T13:30:50;5.80;99.60
1355;DHT22;671;48.972;9.276;2024-01-16T13:33:18;5.90;99.90
1355;DHT22;671;48.972;9.276;2024-01-16T13:35:46;5.90;99.90
1355;DHT22;671;48.972;9.276;2024-01-16T13:38:14;5.90;99.90
1355;DHT22;671;48.972;9.276;2024-01-16T13:40:43;5.90;99.30
1355;DHT22;671;48.972;9.276;2024-01-16T13:43:10;5.80;99.30
1355;DHT22;671;48.972;9.276;2024-01-16T13:45:38;5.90;99.90
1355;DHT22;671;48.972;9.276;2024-01-16T13:48:05;5.90;99.80
1355;DHT22;671;48.972;9.276;2024-01-16T13:50:33;5.90;99.10
1355;DHT22;671;48.972;9.276;2024-01-16T13:53:00;5.90;99.30
1355;DHT22;671;48.972;9.276;2024-01-16T13:55:28;5.90;99.00
1355;DHT22;671;48.972;9.276;2024-01-16T13:57:55;5.90;99.50
1355;DHT22;671;48.972;9.276;2024-01-16T14:00:21;5.90;99.20
1355;DHT22;671;48.972;9.276;2024-01-16T14:02:48;5.80;99.90
1355;DHT22;671;48.972;9.276;2024-01-16T14:05:19;5.80;99.90
1355;DHT22;671;48.972;9.276;2024-01-16T14:07:49;5.80;99.90
1355;DHT22;671;48.972;9.276;2024-01-16T14:10:18;5.70;99.20
1355;DHT22;671;48.972;9.276;2024-01-16T14:12:46;5.60;99.90
1355;DHT22;671;48.972;9.276;2024-01-16T14:15:14;5.50;99.90
1355;DHT22;671;48.972;9.276;2024-01-16T14:17:54;5.50;99.90
1355;DHT22;671;48.972;9.276;2024-01-16T14:20:22;5.40;99.90
1355;DHT22;671;48.972;9.276;2024-01-16T14:22:50;5.40;99.90
1355;DHT22;671;48.972;9.276;2024-01-16T14:25:18;5.30;99.90
1355;DHT22;671;48.972;9.276;2024-01-16T14:27:47;5.20;99.40
1355;DHT22;671;48.972;9.276;2024-01-16T14:30:15;5.10;99.70
1355;DHT22;671;48.972;9.276;2024-01-16T14:32:43;5.00;99.70
1355;DHT22;671;48.972;9.276;2024-01-16T14:35:13;4.90;99.80
1355;DHT22;671;48.972;9.276;2024-01-16T14:37:40;4.80;99.90
1355;DHT22;671;48.972;9.276;2024-01-16T14:40:07;4.80;99.90
1355;DHT22;671;48.972;9.276;2024-01-16T14:42:47;4.70;99.90
1355;DHT22;671;48.972;9.276;2024-01-16T14:45:20;4.60;99.90
1355;DHT22;671;48.972;9.276;2024-01-16T14:47:47;4.60;99.90
1355;DHT22;671;48.972;9.276;2024-01-16T14:50:16;4.50;99.90
1355;DHT22;671;48.972;9.276;2024-01-16T14:52:48;4.50;99.90
1355;DHT22;671;48.972;9.276;2024-01-16T14:55:15;4.50;99.90
1355;DHT22;671;48.972;9.276;2024-01-16T14:57:41;4.40;99.90
1355;DHT22;671;48.972;9.276;2024-01-16T15:00:09;4.40;99.90
1355;DHT22;671;48.972;9.276;2024-01-16T15:02:42;4.30;99.90
1355;DHT22;671;48.972;9.276;2024-01-16T15:05:08;4.40;99.90
1355;DHT22;671;48.972;9.276;2024-01-16T15:07:35;4.30;99.90
1355;DHT22;671;48.972;9.276;2024-01-16T15:10:07;4.30;99.90
1355;DHT22;671;48.972;9.276;2024-01-16T15:12:35;4.30;99.90
1355;DHT22;671;48.972;9.276;2024-01-16T15:15:02;4.20;99.90
1355;DHT22;671;48.972;9.276;2024-01-16T15:17:29;4.10;99.90
1355;DHT22;671;48.972;9.276;2024-01-16T15:19:56;4.00;99.90
1355;DHT22;671;48.972;9.276;2024-01-16T15:22:22;3.90;99.90
1355;DHT22;671;48.972;9.276;2024-01-16T15:24:49;3.80;99.90
1355;DHT22;671;48.972;9.276;2024-01-16T15:27:15;3.80;99.90
1355;DHT22;671;48.972;9.276;2024-01-16T15:29:42;3.70;99.90
1355;DHT22;671;48.972;9.276;2024-01-16T15:32:09;3.60;99.90
1355;DHT22;671;48.972;9.276;2024-01-16T15:34:36;3.40;99.90
1355;DHT22;671;48.972;9.276;2024-01-16T15:37:04;3.30;99.90
1355;DHT22;671;48.972;9.276;2024-01-16T15:39:30;3.10;99.90
1355;DHT22;671;48.972;9.276;2024-01-16T15:41:57;3.00;99.90
1355;DHT22;671;48.972;9.276;2024-01-16T15:44:23;2.90;99.90
1355;DHT22;671;48.972;9.276;2024-01-16T15:49:20;2.60;99.90
1355;DHT22;671;48.972;9.276;2024-01-16T15:51:47;2.40;99.90
1355;DHT22;671;48.972;9.276;2024-01-16T15:54:13;2.30;99.90
1355;DHT22;671;48.972;9.276;2024-01-16T15:56:40;2.20;99.90
1355;DHT22;671;48.972;9.276;2024-01-16T15:59:07;2.10;99.90
1355;DHT22;671;48.972;9.276;2024-01-16T16:01:34;1.90;99.90
1355;DHT22;671;48.972;9.276;2024-01-16T16:04:03;1.80;99.90
1355;DHT22;671;48.972;9.276;2024-01-16T16:06:34;1.70;99.90
1355;DHT22;671;48.972;9.276;2024-01-16T16:09:05;1.50;99.90
1355;DHT22;671;48.972;9.276;2024-01-16T16:11:39;1.40;99.90
1355;DHT22;671;48.972;9.276;2024-01-16T16:14:08;1.30;99.90
1355;DHT22;671;48.972;9.276;2024-01-16T16:16:35;1.30;99.90
1355;DHT22;671;48.972;9.276;2024-01-16T16:19:03;1.20;99.90
1355;DHT22;671;48.972;9.276;2024-01-16T16:21:32;1.10;99.90
1355;DHT22;671;48.972;9.276;2024-01-16T16:23:59;1.00;99.90
1355;DHT22;671;48.972;9.276;2024-01-16T16:29:04;0.80;99.90
1355;DHT22;671;48.972;9.276;2024-01-16T16:31:32;0.80;99.90
1355;DHT22;671;48.972;9.276;2024-01-16T16:33:59;0.70;99.90
1355;DHT22;671;48.972;9.276;2024-01-16T16:36:26;0.60;99.90
1355;DHT22;671;48.972;9.276;2024-01-16T16:38:54;0.50;99.90
1355;DHT22;671;48.972;9.276;2024-01-16T16:41:25;0.50;99.90
1355;DHT22;671;48.972;9.276;2024-01-16T16:43:52;0.40;99.90
1355;DHT22;671;48.972;9.276;2024-01-16T16:46:20;0.40;99.90
1355;DHT22;671;48.972;9.276;2024-01-16T16:48:47;0.30;99.90
1355;DHT22;671;48.972;9.276;2024-01-16T16:51:18;0.30;99.90
1355;DHT22;671;48.972;9.276;2024-01-16T16:53:45;0.20;99.90